UUOB

Belgorod International Airport

Belgorod, Russian Federation
TAF UUOB 161700Z 1618/1703 33003MPS 6000 BKN020CB TEMPO 1618/1624 2000 SHRA BKN007CB
Issued Valid From Valid To
Jul-16 @ 17:00 UTC
(3 hours ago)
Jul-16 @ 18:00 UTC
(2 hours ago)
Jul-17 @ 03:00 UTC
(in 7 hours)
Jul-16 @ 18:00 to Jul-17 @ 03:00
TAF UUOB 161700Z 1618/1703 33003MPS 6000 BKN020CB
Wind Visibility Clouds
330° at 6 knots 6,003 meters
  • Broken at 2,000' AGL
Temporary Jul-16 @ 18:00 to Jul-17 @ 00:00
TEMPO 1618/1624 2000 SHRA BKN007CB
Visibility Clouds Conditions
1,996 meters
  • Broken at 700' AGL
  • Rain
TAF UUOB 161700Z 1618/1703 33003MPS 6000 BKN020CB TEMPO 1618/1624 2000 SHRA BKN007CB
Issued Jul-16 @ 17:00 UTC
(3 hours ago)
Valid From Jul-16 @ 18:00 UTC
(2 hours ago)
Valid To Jul-17 @ 03:00 UTC
(in 7 hours)
Jul-16 @ 18:00 - Jul-17 @ 03:00
Wind Visibility
330° at 6 knots 6,003 meters
Clouds
  • Broken at 2,000' AGL
Temporary Jul-16 @ 18:00 - Jul-17 @ 00:00
Clouds
  • Broken at 700' AGL
Conditions
  • Rain